sensor_id;sensor_type;location;lat;lon;timestamp;P1;durP1;ratioP1;P2;durP2;ratioP2
45039;SDS011;30778;53.574;7.770;2023-08-30T00:00:13;3.08;;;2.72;;
45039;SDS011;30778;53.574;7.770;2023-08-30T00:02:40;4.10;;;2.08;;
45039;SDS011;30778;53.574;7.770;2023-08-30T00:05:06;4.90;;;2.97;;
45039;SDS011;30778;53.574;7.770;2023-08-30T00:07:32;4.25;;;1.80;;
45039;SDS011;30778;53.574;7.770;2023-08-30T00:09:58;6.30;;;3.22;;
45039;SDS011;30778;53.574;7.770;2023-08-30T00:12:24;3.97;;;3.17;;
45039;SDS011;30778;53.574;7.770;2023-08-30T00:14:50;3.20;;;2.60;;
45039;SDS011;30778;53.574;7.770;2023-08-30T00:17:16;3.25;;;2.83;;
45039;SDS011;30778;53.574;7.770;2023-08-30T00:19:41;6.10;;;3.55;;
45039;SDS011;30778;53.574;7.770;2023-08-30T00:22:07;3.33;;;3.03;;
45039;SDS011;30778;53.574;7.770;2023-08-30T00:24:33;3.80;;;2.75;;
45039;SDS011;30778;53.574;7.770;2023-08-30T00:27:00;3.90;;;2.40;;
45039;SDS011;30778;53.574;7.770;2023-08-30T00:29:27;4.43;;;2.65;;
45039;SDS011;30778;53.574;7.770;2023-08-30T00:31:53;4.47;;;2.58;;
45039;SDS011;30778;53.574;7.770;2023-08-30T00:34:18;3.90;;;2.47;;
45039;SDS011;30778;53.574;7.770;2023-08-30T00:36:44;3.92;;;2.42;;
45039;SDS011;30778;53.574;7.770;2023-08-30T00:39:09;6.65;;;2.65;;
45039;SDS011;30778;53.574;7.770;2023-08-30T00:41:35;4.45;;;3.75;;
45039;SDS011;30778;53.574;7.770;2023-08-30T00:44:00;5.70;;;3.47;;
45039;SDS011;30778;53.574;7.770;2023-08-30T00:46:27;5.85;;;2.88;;
45039;SDS011;30778;53.574;7.770;2023-08-30T00:48:53;5.10;;;3.35;;
45039;SDS011;30778;53.574;7.770;2023-08-30T00:51:18;5.45;;;3.75;;
45039;SDS011;30778;53.574;7.770;2023-08-30T00:53:44;3.33;;;3.03;;
45039;SDS011;30778;53.574;7.770;2023-08-30T00:56:10;4.88;;;3.47;;
45039;SDS011;30778;53.574;7.770;2023-08-30T00:58:36;5.95;;;3.80;;
45039;SDS011;30778;53.574;7.770;2023-08-30T01:01:03;3.88;;;3.35;;
45039;SDS011;30778;53.574;7.770;2023-08-30T01:03:34;5.60;;;4.05;;
45039;SDS011;30778;53.574;7.770;2023-08-30T01:06:00;6.80;;;3.70;;
45039;SDS011;30778;53.574;7.770;2023-08-30T01:08:26;4.38;;;3.05;;
45039;SDS011;30778;53.574;7.770;2023-08-30T01:13:44;6.10;;;3.70;;
45039;SDS011;30778;53.574;7.770;2023-08-30T01:16:15;4.20;;;3.50;;
45039;SDS011;30778;53.574;7.770;2023-08-30T01:18:42;7.78;;;4.10;;
45039;SDS011;30778;53.574;7.770;2023-08-30T01:21:09;4.03;;;3.15;;
45039;SDS011;30778;53.574;7.770;2023-08-30T01:23:44;5.88;;;3.97;;
45039;SDS011;30778;53.574;7.770;2023-08-30T01:26:26;5.63;;;3.50;;
45039;SDS011;30778;53.574;7.770;2023-08-30T01:29:01;4.93;;;3.38;;
45039;SDS011;30778;53.574;7.770;2023-08-30T01:31:31;6.32;;;3.35;;
45039;SDS011;30778;53.574;7.770;2023-08-30T01:33:59;4.72;;;4.15;;
45039;SDS011;30778;53.574;7.770;2023-08-30T01:36:28;4.57;;;3.65;;
45039;SDS011;30778;53.574;7.770;2023-08-30T01:38:55;5.88;;;4.35;;
45039;SDS011;30778;53.574;7.770;2023-08-30T01:41:23;4.63;;;3.88;;
45039;SDS011;30778;53.574;7.770;2023-08-30T01:43:51;5.03;;;3.38;;
45039;SDS011;30778;53.574;7.770;2023-08-30T01:46:18;5.82;;;3.80;;
45039;SDS011;30778;53.574;7.770;2023-08-30T01:48:46;5.20;;;4.30;;
45039;SDS011;30778;53.574;7.770;2023-08-30T01:51:14;7.82;;;4.30;;
45039;SDS011;30778;53.574;7.770;2023-08-30T01:53:41;8.13;;;4.05;;
45039;SDS011;30778;53.574;7.770;2023-08-30T01:56:09;4.13;;;3.15;;
45039;SDS011;30778;53.574;7.770;2023-08-30T01:58:35;5.55;;;4.05;;
45039;SDS011;30778;53.574;7.770;2023-08-30T02:01:00;5.10;;;3.30;;
45039;SDS011;30778;53.574;7.770;2023-08-30T02:03:26;7.00;;;3.88;;
45039;SDS011;30778;53.574;7.770;2023-08-30T02:06:00;5.60;;;4.03;;
45039;SDS011;30778;53.574;7.770;2023-08-30T02:08:55;5.28;;;4.20;;
45039;SDS011;30778;53.574;7.770;2023-08-30T02:11:28;6.72;;;4.88;;
45039;SDS011;30778;53.574;7.770;2023-08-30T02:13:58;7.55;;;4.05;;
45039;SDS011;30778;53.574;7.770;2023-08-30T02:16:28;8.80;;;4.75;;
45039;SDS011;30778;53.574;7.770;2023-08-30T02:18:55;7.43;;;4.53;;
45039;SDS011;30778;53.574;7.770;2023-08-30T02:21:21;7.32;;;4.60;;
45039;SDS011;30778;53.574;7.770;2023-08-30T02:23:52;5.57;;;4.43;;
45039;SDS011;30778;53.574;7.770;2023-08-30T02:26:19;7.22;;;4.65;;
45039;SDS011;30778;53.574;7.770;2023-08-30T02:28:46;5.78;;;4.18;;
45039;SDS011;30778;53.574;7.770;2023-08-30T02:31:11;7.20;;;5.90;;
45039;SDS011;30778;53.574;7.770;2023-08-30T02:33:37;9.13;;;5.90;;
45039;SDS011;30778;53.574;7.770;2023-08-30T02:36:03;9.13;;;4.97;;
45039;SDS011;30778;53.574;7.770;2023-08-30T02:38:29;7.57;;;4.82;;
45039;SDS011;30778;53.574;7.770;2023-08-30T02:40:55;7.15;;;5.10;;
45039;SDS011;30778;53.574;7.770;2023-08-30T02:43:21;7.07;;;4.55;;
45039;SDS011;30778;53.574;7.770;2023-08-30T02:45:47;7.18;;;5.78;;
45039;SDS011;30778;53.574;7.770;2023-08-30T02:48:12;8.63;;;5.82;;
45039;SDS011;30778;53.574;7.770;2023-08-30T02:50:40;8.02;;;5.70;;
45039;SDS011;30778;53.574;7.770;2023-08-30T02:53:05;6.72;;;6.00;;
45039;SDS011;30778;53.574;7.770;2023-08-30T02:55:34;6.40;;;5.03;;
45039;SDS011;30778;53.574;7.770;2023-08-30T02:57:59;6.45;;;5.25;;
45039;SDS011;30778;53.574;7.770;2023-08-30T03:00:26;7.13;;;5.10;;
45039;SDS011;30778;53.574;7.770;2023-08-30T03:02:51;6.53;;;5.57;;
45039;SDS011;30778;53.574;7.770;2023-08-30T03:05:18;8.38;;;5.68;;
45039;SDS011;30778;53.574;7.770;2023-08-30T03:07:44;6.63;;;5.25;;
45039;SDS011;30778;53.574;7.770;2023-08-30T03:10:10;8.25;;;6.07;;
45039;SDS011;30778;53.574;7.770;2023-08-30T03:12:36;8.50;;;6.30;;
45039;SDS011;30778;53.574;7.770;2023-08-30T03:15:02;7.97;;;6.03;;
45039;SDS011;30778;53.574;7.770;2023-08-30T03:17:29;9.55;;;6.65;;
45039;SDS011;30778;53.574;7.770;2023-08-30T03:19:57;9.10;;;6.13;;
45039;SDS011;30778;53.574;7.770;2023-08-30T03:22:23;10.13;;;7.88;;
45039;SDS011;30778;53.574;7.770;2023-08-30T03:24:48;9.65;;;6.35;;
45039;SDS011;30778;53.574;7.770;2023-08-30T03:27:15;8.00;;;6.47;;
45039;SDS011;30778;53.574;7.770;2023-08-30T03:29:41;12.57;;;6.95;;
45039;SDS011;30778;53.574;7.770;2023-08-30T03:32:07;8.68;;;7.45;;
45039;SDS011;30778;53.574;7.770;2023-08-30T03:34:32;11.20;;;6.80;;
45039;SDS011;30778;53.574;7.770;2023-08-30T03:36:58;9.73;;;6.57;;
45039;SDS011;30778;53.574;7.770;2023-08-30T03:39:23;9.95;;;6.78;;
45039;SDS011;30778;53.574;7.770;2023-08-30T03:41:49;9.00;;;7.65;;
45039;SDS011;30778;53.574;7.770;2023-08-30T03:44:15;8.32;;;6.30;;
45039;SDS011;30778;53.574;7.770;2023-08-30T03:46:41;9.23;;;6.85;;
45039;SDS011;30778;53.574;7.770;2023-08-30T03:49:06;10.23;;;6.93;;
45039;SDS011;30778;53.574;7.770;2023-08-30T03:51:32;9.90;;;7.45;;
45039;SDS011;30778;53.574;7.770;2023-08-30T03:53:57;8.15;;;7.00;;
45039;SDS011;30778;53.574;7.770;2023-08-30T03:56:23;10.75;;;8.30;;
45039;SDS011;30778;53.574;7.770;2023-08-30T03:58:49;14.55;;;9.18;;
45039;SDS011;30778;53.574;7.770;2023-08-30T04:01:14;12.68;;;8.57;;
45039;SDS011;30778;53.574;7.770;2023-08-30T04:03:40;14.68;;;8.50;;
45039;SDS011;30778;53.574;7.770;2023-08-30T04:06:06;12.80;;;9.13;;
45039;SDS011;30778;53.574;7.770;2023-08-30T04:08:32;14.35;;;9.73;;
45039;SDS011;30778;53.574;7.770;2023-08-30T04:10:58;14.73;;;9.85;;
45039;SDS011;30778;53.574;7.770;2023-08-30T04:13:23;11.25;;;8.88;;
45039;SDS011;30778;53.574;7.770;2023-08-30T04:15:48;12.82;;;9.43;;
45039;SDS011;30778;53.574;7.770;2023-08-30T04:18:14;16.15;;;9.27;;
45039;SDS011;30778;53.574;7.770;2023-08-30T04:20:43;14.82;;;9.15;;
45039;SDS011;30778;53.574;7.770;2023-08-30T04:23:10;12.75;;;9.48;;
45039;SDS011;30778;53.574;7.770;2023-08-30T04:25:36;15.52;;;10.20;;
45039;SDS011;30778;53.574;7.770;2023-08-30T04:28:04;15.10;;;8.93;;
45039;SDS011;30778;53.574;7.770;2023-08-30T04:30:29;12.50;;;9.48;;
45039;SDS011;30778;53.574;7.770;2023-08-30T04:32:56;12.95;;;8.65;;
45039;SDS011;30778;53.574;7.770;2023-08-30T04:35:22;12.88;;;9.27;;
45039;SDS011;30778;53.574;7.770;2023-08-30T04:37:47;12.73;;;9.52;;
45039;SDS011;30778;53.574;7.770;2023-08-30T04:40:13;14.15;;;10.10;;
45039;SDS011;30778;53.574;7.770;2023-08-30T04:42:40;17.42;;;10.48;;
45039;SDS011;30778;53.574;7.770;2023-08-30T04:45:05;14.75;;;9.52;;
45039;SDS011;30778;53.574;7.770;2023-08-30T04:47:32;16.73;;;10.35;;
45039;SDS011;30778;53.574;7.770;2023-08-30T04:49:59;12.60;;;9.40;;
45039;SDS011;30778;53.574;7.770;2023-08-30T04:52:25;14.48;;;8.85;;
45039;SDS011;30778;53.574;7.770;2023-08-30T04:54:53;15.73;;;11.15;;
45039;SDS011;30778;53.574;7.770;2023-08-30T04:57:21;12.50;;;9.10;;
45039;SDS011;30778;53.574;7.770;2023-08-30T04:59:47;14.07;;;10.13;;
45039;SDS011;30778;53.574;7.770;2023-08-30T05:02:13;14.65;;;9.00;;
45039;SDS011;30778;53.574;7.770;2023-08-30T05:05:01;11.98;;;8.00;;
45039;SDS011;30778;53.574;7.770;2023-08-30T05:07:27;14.23;;;9.02;;
45039;SDS011;30778;53.574;7.770;2023-08-30T05:09:52;14.38;;;8.60;;
45039;SDS011;30778;53.574;7.770;2023-08-30T05:12:18;10.90;;;8.25;;
45039;SDS011;30778;53.574;7.770;2023-08-30T05:14:43;18.00;;;10.65;;
45039;SDS011;30778;53.574;7.770;2023-08-30T05:17:09;13.95;;;9.63;;
45039;SDS011;30778;53.574;7.770;2023-08-30T05:19:34;12.65;;;8.45;;
45039;SDS011;30778;53.574;7.770;2023-08-30T05:22:03;25.50;;;9.02;;
45039;SDS011;30778;53.574;7.770;2023-08-30T05:24:29;13.63;;;9.07;;
45039;SDS011;30778;53.574;7.770;2023-08-30T05:26:54;13.50;;;8.93;;
45039;SDS011;30778;53.574;7.770;2023-08-30T05:29:23;12.57;;;8.68;;
45039;SDS011;30778;53.574;7.770;2023-08-30T05:31:49;13.27;;;9.25;;
45039;SDS011;30778;53.574;7.770;2023-08-30T05:34:34;14.50;;;9.93;;
45039;SDS011;30778;53.574;7.770;2023-08-30T05:37:38;11.23;;;8.90;;
45039;SDS011;30778;53.574;7.770;2023-08-30T05:40:22;14.10;;;10.02;;
45039;SDS011;30778;53.574;7.770;2023-08-30T05:42:48;13.30;;;9.43;;
45039;SDS011;30778;53.574;7.770;2023-08-30T05:45:15;12.40;;;9.68;;
45039;SDS011;30778;53.574;7.770;2023-08-30T05:47:41;14.05;;;9.73;;
45039;SDS011;30778;53.574;7.770;2023-08-30T05:50:06;13.50;;;9.73;;
45039;SDS011;30778;53.574;7.770;2023-08-30T05:52:32;13.77;;;9.23;;
45039;SDS011;30778;53.574;7.770;2023-08-30T05:54:58;13.57;;;8.98;;
45039;SDS011;30778;53.574;7.770;2023-08-30T05:57:24;12.98;;;8.55;;
45039;SDS011;30778;53.574;7.770;2023-08-30T05:59:51;10.13;;;7.82;;
45039;SDS011;30778;53.574;7.770;2023-08-30T06:02:17;17.65;;;9.35;;
45039;SDS011;30778;53.574;7.770;2023-08-30T06:04:45;11.15;;;8.73;;
45039;SDS011;30778;53.574;7.770;2023-08-30T06:07:11;11.80;;;8.35;;
45039;SDS011;30778;53.574;7.770;2023-08-30T06:09:37;8.63;;;7.43;;
45039;SDS011;30778;53.574;7.770;2023-08-30T06:12:03;12.88;;;8.35;;
45039;SDS011;30778;53.574;7.770;2023-08-30T06:14:28;11.38;;;8.32;;
45039;SDS011;30778;53.574;7.770;2023-08-30T06:16:54;8.52;;;6.32;;
45039;SDS011;30778;53.574;7.770;2023-08-30T06:19:20;10.40;;;7.63;;
45039;SDS011;30778;53.574;7.770;2023-08-30T06:21:45;10.38;;;7.18;;
45039;SDS011;30778;53.574;7.770;2023-08-30T06:24:11;11.48;;;7.90;;
45039;SDS011;30778;53.574;7.770;2023-08-30T06:26:36;9.38;;;6.57;;
45039;SDS011;30778;53.574;7.770;2023-08-30T06:29:02;7.25;;;6.32;;
45039;SDS011;30778;53.574;7.770;2023-08-30T06:31:27;9.30;;;6.35;;
45039;SDS011;30778;53.574;7.770;2023-08-30T06:33:54;5.88;;;5.38;;
45039;SDS011;30778;53.574;7.770;2023-08-30T06:36:20;7.47;;;5.35;;
45039;SDS011;30778;53.574;7.770;2023-08-30T06:38:48;6.68;;;5.45;;
45039;SDS011;30778;53.574;7.770;2023-08-30T06:41:14;8.40;;;5.72;;
45039;SDS011;30778;53.574;7.770;2023-08-30T06:43:40;8.15;;;5.97;;
45039;SDS011;30778;53.574;7.770;2023-08-30T06:46:06;7.38;;;4.93;;
45039;SDS011;30778;53.574;7.770;2023-08-30T06:48:32;6.65;;;5.13;;
45039;SDS011;30778;53.574;7.770;2023-08-30T06:50:58;7.35;;;6.38;;
45039;SDS011;30778;53.574;7.770;2023-08-30T06:53:25;8.00;;;4.65;;
45039;SDS011;30778;53.574;7.770;2023-08-30T06:56:00;8.18;;;4.88;;
45039;SDS011;30778;53.574;7.770;2023-08-30T06:58:26;7.95;;;4.55;;
45039;SDS011;30778;53.574;7.770;2023-08-30T07:00:52;7.53;;;5.03;;
45039;SDS011;30778;53.574;7.770;2023-08-30T07:03:18;5.90;;;4.07;;
45039;SDS011;30778;53.574;7.770;2023-08-30T07:05:44;6.93;;;5.00;;
45039;SDS011;30778;53.574;7.770;2023-08-30T07:08:09;5.18;;;3.95;;
45039;SDS011;30778;53.574;7.770;2023-08-30T07:10:35;8.73;;;4.57;;
45039;SDS011;30778;53.574;7.770;2023-08-30T07:13:00;4.85;;;4.03;;
45039;SDS011;30778;53.574;7.770;2023-08-30T07:15:26;4.13;;;3.38;;
45039;SDS011;30778;53.574;7.770;2023-08-30T07:17:52;5.40;;;3.95;;
45039;SDS011;30778;53.574;7.770;2023-08-30T07:20:18;4.88;;;3.42;;
45039;SDS011;30778;53.574;7.770;2023-08-30T07:22:44;4.53;;;3.53;;
45039;SDS011;30778;53.574;7.770;2023-08-30T07:25:10;4.05;;;3.63;;
45039;SDS011;30778;53.574;7.770;2023-08-30T07:27:36;3.85;;;3.35;;
45039;SDS011;30778;53.574;7.770;2023-08-30T07:30:02;4.80;;;2.78;;
45039;SDS011;30778;53.574;7.770;2023-08-30T07:32:29;4.40;;;3.05;;
45039;SDS011;30778;53.574;7.770;2023-08-30T07:34:55;8.45;;;3.65;;
45039;SDS011;30778;53.574;7.770;2023-08-30T07:37:21;4.30;;;3.42;;
45039;SDS011;30778;53.574;7.770;2023-08-30T07:39:47;4.40;;;2.95;;
45039;SDS011;30778;53.574;7.770;2023-08-30T07:42:13;4.88;;;3.22;;
45039;SDS011;30778;53.574;7.770;2023-08-30T07:44:39;7.30;;;3.40;;
45039;SDS011;30778;53.574;7.770;2023-08-30T07:47:05;5.80;;;3.47;;
45039;SDS011;30778;53.574;7.770;2023-08-30T07:49:30;6.13;;;3.55;;
45039;SDS011;30778;53.574;7.770;2023-08-30T07:51:55;6.63;;;3.38;;
45039;SDS011;30778;53.574;7.770;2023-08-30T07:54:21;5.55;;;3.20;;
45039;SDS011;30778;53.574;7.770;2023-08-30T07:56:46;5.13;;;3.05;;
45039;SDS011;30778;53.574;7.770;2023-08-30T07:59:12;4.93;;;3.65;;
45039;SDS011;30778;53.574;7.770;2023-08-30T08:01:38;4.85;;;2.95;;
45039;SDS011;30778;53.574;7.770;2023-08-30T08:04:03;7.88;;;5.18;;
45039;SDS011;30778;53.574;7.770;2023-08-30T08:06:29;6.85;;;4.00;;
45039;SDS011;30778;53.574;7.770;2023-08-30T08:08:54;6.82;;;4.70;;
45039;SDS011;30778;53.574;7.770;2023-08-30T08:11:19;3.80;;;3.22;;
45039;SDS011;30778;53.574;7.770;2023-08-30T08:13:45;6.50;;;3.92;;
45039;SDS011;30778;53.574;7.770;2023-08-30T08:16:11;5.25;;;2.92;;
45039;SDS011;30778;53.574;7.770;2023-08-30T08:18:36;6.85;;;3.88;;
45039;SDS011;30778;53.574;7.770;2023-08-30T08:21:02;9.00;;;3.72;;
45039;SDS011;30778;53.574;7.770;2023-08-30T08:23:27;6.13;;;3.85;;
45039;SDS011;30778;53.574;7.770;2023-08-30T08:25:59;7.28;;;4.28;;
45039;SDS011;30778;53.574;7.770;2023-08-30T08:28:26;6.93;;;4.28;;
45039;SDS011;30778;53.574;7.770;2023-08-30T08:30:51;8.27;;;3.90;;
45039;SDS011;30778;53.574;7.770;2023-08-30T08:33:17;6.70;;;4.80;;
45039;SDS011;30778;53.574;7.770;2023-08-30T08:35:48;6.30;;;4.40;;
45039;SDS011;30778;53.574;7.770;2023-08-30T08:38:14;8.40;;;4.43;;
45039;SDS011;30778;53.574;7.770;2023-08-30T08:40:39;9.15;;;6.28;;
45039;SDS011;30778;53.574;7.770;2023-08-30T08:43:05;7.15;;;4.68;;
45039;SDS011;30778;53.574;7.770;2023-08-30T08:45:37;9.75;;;5.03;;
45039;SDS011;30778;53.574;7.770;2023-08-30T08:48:06;8.85;;;5.07;;
45039;SDS011;30778;53.574;7.770;2023-08-30T08:50:33;10.35;;;5.97;;
45039;SDS011;30778;53.574;7.770;2023-08-30T08:52:59;13.13;;;5.78;;
45039;SDS011;30778;53.574;7.770;2023-08-30T08:55:26;8.10;;;5.10;;
45039;SDS011;30778;53.574;7.770;2023-08-30T08:57:56;7.70;;;5.15;;
45039;SDS011;30778;53.574;7.770;2023-08-30T09:00:23;11.88;;;6.07;;
45039;SDS011;30778;53.574;7.770;2023-08-30T09:02:49;10.88;;;5.32;;
45039;SDS011;30778;53.574;7.770;2023-08-30T09:05:18;9.10;;;5.13;;
45039;SDS011;30778;53.574;7.770;2023-08-30T09:07:44;8.93;;;5.32;;
45039;SDS011;30778;53.574;7.770;2023-08-30T09:10:10;9.30;;;5.25;;
45039;SDS011;30778;53.574;7.770;2023-08-30T09:12:36;11.00;;;4.90;;
45039;SDS011;30778;53.574;7.770;2023-08-30T09:15:02;8.95;;;4.80;;
45039;SDS011;30778;53.574;7.770;2023-08-30T09:17:39;7.20;;;4.93;;
45039;SDS011;30778;53.574;7.770;2023-08-30T09:20:12;11.07;;;4.72;;
45039;SDS011;30778;53.574;7.770;2023-08-30T09:22:38;7.72;;;4.65;;
45039;SDS011;30778;53.574;7.770;2023-08-30T09:25:06;6.72;;;4.97;;
45039;SDS011;30778;53.574;7.770;2023-08-30T09:27:34;8.32;;;4.03;;
45039;SDS011;30778;53.574;7.770;2023-08-30T09:30:00;8.00;;;4.93;;
45039;SDS011;30778;53.574;7.770;2023-08-30T09:32:28;9.38;;;4.82;;
45039;SDS011;30778;53.574;7.770;2023-08-30T09:34:53;11.25;;;5.18;;
45039;SDS011;30778;53.574;7.770;2023-08-30T09:37:19;7.00;;;4.22;;
45039;SDS011;30778;53.574;7.770;2023-08-30T09:39:52;10.50;;;5.35;;
45039;SDS011;30778;53.574;7.770;2023-08-30T09:42:17;7.28;;;4.15;;
45039;SDS011;30778;53.574;7.770;2023-08-30T09:44:43;7.07;;;4.30;;
45039;SDS011;30778;53.574;7.770;2023-08-30T09:47:09;6.72;;;4.97;;
45039;SDS011;30778;53.574;7.770;2023-08-30T09:49:41;6.65;;;3.97;;
45039;SDS011;30778;53.574;7.770;2023-08-30T09:52:08;10.38;;;5.28;;
45039;SDS011;30778;53.574;7.770;2023-08-30T09:54:35;8.55;;;4.95;;
45039;SDS011;30778;53.574;7.770;2023-08-30T09:57:04;7.47;;;5.35;;
45039;SDS011;30778;53.574;7.770;2023-08-30T09:59:30;6.50;;;4.65;;
45039;SDS011;30778;53.574;7.770;2023-08-30T10:01:56;10.38;;;5.22;;
45039;SDS011;30778;53.574;7.770;2023-08-30T10:04:22;7.57;;;4.65;;
45039;SDS011;30778;53.574;7.770;2023-08-30T10:06:48;8.95;;;4.88;;
45039;SDS011;30778;53.574;7.770;2023-08-30T10:09:18;8.18;;;4.70;;
45039;SDS011;30778;53.574;7.770;2023-08-30T10:11:44;8.65;;;5.65;;
45039;SDS011;30778;53.574;7.770;2023-08-30T10:14:11;5.38;;;4.45;;
45039;SDS011;30778;53.574;7.770;2023-08-30T10:16:47;7.57;;;5.43;;
45039;SDS011;30778;53.574;7.770;2023-08-30T10:19:17;10.63;;;5.75;;
45039;SDS011;30778;53.574;7.770;2023-08-30T10:22:03;8.43;;;5.78;;
45039;SDS011;30778;53.574;7.770;2023-08-30T10:24:31;8.82;;;5.60;;
45039;SDS011;30778;53.574;7.770;2023-08-30T10:27:00;9.70;;;5.88;;
45039;SDS011;30778;53.574;7.770;2023-08-30T10:29:28;8.52;;;5.50;;
45039;SDS011;30778;53.574;7.770;2023-08-30T10:32:05;11.70;;;6.13;;
45039;SDS011;30778;53.574;7.770;2023-08-30T10:34:31;10.63;;;6.20;;
45039;SDS011;30778;53.574;7.770;2023-08-30T10:36:59;11.68;;;6.25;;
45039;SDS011;30778;53.574;7.770;2023-08-30T10:39:35;10.45;;;7.40;;
45039;SDS011;30778;53.574;7.770;2023-08-30T10:42:09;10.52;;;6.18;;
45039;SDS011;30778;53.574;7.770;2023-08-30T10:44:46;8.30;;;6.03;;
45039;SDS011;30778;53.574;7.770;2023-08-30T10:47:33;11.02;;;6.88;;
45039;SDS011;30778;53.574;7.770;2023-08-30T10:50:09;12.18;;;6.53;;
45039;SDS011;30778;53.574;7.770;2023-08-30T10:52:36;9.50;;;5.50;;
45039;SDS011;30778;53.574;7.770;2023-08-30T10:55:12;10.98;;;6.43;;
45039;SDS011;30778;53.574;7.770;2023-08-30T10:57:43;11.65;;;6.25;;
45039;SDS011;30778;53.574;7.770;2023-08-30T11:00:22;10.57;;;6.05;;
45039;SDS011;30778;53.574;7.770;2023-08-30T11:02:49;8.73;;;5.75;;
45039;SDS011;30778;53.574;7.770;2023-08-30T11:05:16;13.32;;;8.07;;
45039;SDS011;30778;53.574;7.770;2023-08-30T11:07:43;11.85;;;6.95;;
45039;SDS011;30778;53.574;7.770;2023-08-30T11:10:09;9.25;;;6.53;;
45039;SDS011;30778;53.574;7.770;2023-08-30T11:12:34;10.00;;;5.47;;
45039;SDS011;30778;53.574;7.770;2023-08-30T11:15:01;9.43;;;5.93;;
45039;SDS011;30778;53.574;7.770;2023-08-30T11:17:27;10.07;;;6.63;;
45039;SDS011;30778;53.574;7.770;2023-08-30T11:19:57;12.88;;;6.28;;
45039;SDS011;30778;53.574;7.770;2023-08-30T11:22:23;12.82;;;7.07;;
45039;SDS011;30778;53.574;7.770;2023-08-30T11:24:49;8.55;;;5.47;;
45039;SDS011;30778;53.574;7.770;2023-08-30T11:27:18;9.73;;;6.35;;
45039;SDS011;30778;53.574;7.770;2023-08-30T11:29:44;8.35;;;5.75;;
45039;SDS011;30778;53.574;7.770;2023-08-30T11:32:10;10.13;;;6.20;;
45039;SDS011;30778;53.574;7.770;2023-08-30T11:34:35;7.22;;;5.40;;
45039;SDS011;30778;53.574;7.770;2023-08-30T11:37:00;11.80;;;6.30;;
45039;SDS011;30778;53.574;7.770;2023-08-30T11:39:27;8.48;;;5.25;;
45039;SDS011;30778;53.574;7.770;2023-08-30T11:41:54;9.60;;;4.78;;
45039;SDS011;30778;53.574;7.770;2023-08-30T11:44:20;9.73;;;5.25;;
45039;SDS011;30778;53.574;7.770;2023-08-30T11:46:48;9.73;;;5.63;;
45039;SDS011;30778;53.574;7.770;2023-08-30T11:49:15;9.23;;;6.13;;
45039;SDS011;30778;53.574;7.770;2023-08-30T11:51:41;6.10;;;4.45;;
45039;SDS011;30778;53.574;7.770;2023-08-30T11:54:07;6.75;;;5.20;;
45039;SDS011;30778;53.574;7.770;2023-08-30T11:56:34;9.57;;;4.68;;
45039;SDS011;30778;53.574;7.770;2023-08-30T11:59:01;8.95;;;4.57;;
45039;SDS011;30778;53.574;7.770;2023-08-30T12:01:27;6.07;;;4.15;;
45039;SDS011;30778;53.574;7.770;2023-08-30T12:03:53;10.80;;;4.35;;
45039;SDS011;30778;53.574;7.770;2023-08-30T12:06:19;10.18;;;4.60;;
45039;SDS011;30778;53.574;7.770;2023-08-30T12:08:48;12.48;;;4.65;;
45039;SDS011;30778;53.574;7.770;2023-08-30T12:11:19;6.80;;;4.30;;
45039;SDS011;30778;53.574;7.770;2023-08-30T12:13:45;8.02;;;4.47;;
45039;SDS011;30778;53.574;7.770;2023-08-30T12:16:16;6.05;;;3.70;;
45039;SDS011;30778;53.574;7.770;2023-08-30T12:18:43;10.55;;;5.20;;
45039;SDS011;30778;53.574;7.770;2023-08-30T12:21:08;6.90;;;4.18;;
45039;SDS011;30778;53.574;7.770;2023-08-30T12:23:34;8.93;;;4.78;;
45039;SDS011;30778;53.574;7.770;2023-08-30T12:26:00;9.30;;;4.63;;
45039;SDS011;30778;53.574;7.770;2023-08-30T12:28:31;11.40;;;4.90;;
45039;SDS011;30778;53.574;7.770;2023-08-30T12:30:58;9.07;;;5.07;;
45039;SDS011;30778;53.574;7.770;2023-08-30T12:33:24;9.68;;;5.25;;
45039;SDS011;30778;53.574;7.770;2023-08-30T12:35:55;7.50;;;5.18;;
45039;SDS011;30778;53.574;7.770;2023-08-30T12:38:21;11.32;;;7.20;;
45039;SDS011;30778;53.574;7.770;2023-08-30T12:40:49;9.15;;;5.60;;
45039;SDS011;30778;53.574;7.770;2023-08-30T12:43:18;9.27;;;5.65;;
45039;SDS011;30778;53.574;7.770;2023-08-30T12:45:45;8.43;;;5.57;;
45039;SDS011;30778;53.574;7.770;2023-08-30T12:48:11;9.13;;;5.28;;
45039;SDS011;30778;53.574;7.770;2023-08-30T12:50:39;8.85;;;5.53;;
45039;SDS011;30778;53.574;7.770;2023-08-30T12:53:05;7.47;;;4.38;;
45039;SDS011;30778;53.574;7.770;2023-08-30T12:55:31;8.95;;;4.82;;
45039;SDS011;30778;53.574;7.770;2023-08-30T12:57:57;13.00;;;7.13;;
45039;SDS011;30778;53.574;7.770;2023-08-30T13:00:23;9.90;;;6.50;;
45039;SDS011;30778;53.574;7.770;2023-08-30T13:02:49;9.68;;;6.40;;
45039;SDS011;30778;53.574;7.770;2023-08-30T13:05:15;11.43;;;6.20;;
45039;SDS011;30778;53.574;7.770;2023-08-30T13:07:41;10.88;;;5.35;;
45039;SDS011;30778;53.574;7.770;2023-08-30T13:10:07;8.05;;;5.10;;
45039;SDS011;30778;53.574;7.770;2023-08-30T13:12:33;10.48;;;5.38;;
45039;SDS011;30778;53.574;7.770;2023-08-30T13:15:06;8.48;;;5.80;;
45039;SDS011;30778;53.574;7.770;2023-08-30T13:17:32;6.63;;;5.20;;
45039;SDS011;30778;53.574;7.770;2023-08-30T13:19:58;8.70;;;5.88;;
45039;SDS011;30778;53.574;7.770;2023-08-30T13:22:24;10.35;;;5.50;;
45039;SDS011;30778;53.574;7.770;2023-08-30T13:24:51;9.13;;;6.32;;
45039;SDS011;30778;53.574;7.770;2023-08-30T13:27:19;8.70;;;5.22;;
45039;SDS011;30778;53.574;7.770;2023-08-30T13:29:45;6.85;;;5.28;;
45039;SDS011;30778;53.574;7.770;2023-08-30T13:32:10;9.27;;;6.03;;
45039;SDS011;30778;53.574;7.770;2023-08-30T13:34:36;9.38;;;5.68;;
45039;SDS011;30778;53.574;7.770;2023-08-30T13:37:02;9.63;;;5.90;;
45039;SDS011;30778;53.574;7.770;2023-08-30T13:39:28;7.90;;;5.45;;
45039;SDS011;30778;53.574;7.770;2023-08-30T13:41:54;7.85;;;5.30;;
45039;SDS011;30778;53.574;7.770;2023-08-30T13:44:20;14.05;;;5.47;;
45039;SDS011;30778;53.574;7.770;2023-08-30T13:46:45;9.82;;;4.97;;
45039;SDS011;30778;53.574;7.770;2023-08-30T13:49:14;6.70;;;5.03;;
45039;SDS011;30778;53.574;7.770;2023-08-30T13:51:40;12.73;;;5.00;;
45039;SDS011;30778;53.574;7.770;2023-08-30T13:54:06;7.82;;;4.88;;
45039;SDS011;30778;53.574;7.770;2023-08-30T13:56:32;8.27;;;4.63;;
45039;SDS011;30778;53.574;7.770;2023-08-30T13:58:57;5.90;;;4.50;;
45039;SDS011;30778;53.574;7.770;2023-08-30T14:01:23;6.07;;;3.42;;
45039;SDS011;30778;53.574;7.770;2023-08-30T14:03:48;4.60;;;3.95;;
45039;SDS011;30778;53.574;7.770;2023-08-30T14:06:14;4.70;;;3.88;;
45039;SDS011;30778;53.574;7.770;2023-08-30T14:08:40;5.20;;;3.95;;
45039;SDS011;30778;53.574;7.770;2023-08-30T14:11:05;8.45;;;5.32;;
45039;SDS011;30778;53.574;7.770;2023-08-30T14:13:31;6.22;;;5.20;;
45039;SDS011;30778;53.574;7.770;2023-08-30T14:16:02;10.35;;;6.50;;
45039;SDS011;30778;53.574;7.770;2023-08-30T14:18:31;7.32;;;6.63;;
45039;SDS011;30778;53.574;7.770;2023-08-30T14:20:57;9.63;;;6.63;;
45039;SDS011;30778;53.574;7.770;2023-08-30T14:23:24;8.48;;;7.03;;
45039;SDS011;30778;53.574;7.770;2023-08-30T14:26:00;11.30;;;8.70;;
45039;SDS011;30778;53.574;7.770;2023-08-30T14:28:34;13.80;;;9.98;;
45039;SDS011;30778;53.574;7.770;2023-08-30T14:31:00;14.25;;;10.20;;
45039;SDS011;30778;53.574;7.770;2023-08-30T14:33:26;16.30;;;11.90;;
45039;SDS011;30778;53.574;7.770;2023-08-30T14:35:51;15.73;;;11.50;;
45039;SDS011;30778;53.574;7.770;2023-08-30T14:38:17;15.68;;;10.13;;
45039;SDS011;30778;53.574;7.770;2023-08-30T14:40:42;16.20;;;10.88;;
45039;SDS011;30778;53.574;7.770;2023-08-30T14:43:08;14.05;;;10.07;;
45039;SDS011;30778;53.574;7.770;2023-08-30T14:45:33;15.50;;;10.70;;